sensor_id;sensor_type;location;lat;lon;timestamp;temperature;humidity
51091;DHT22;37136;43.614;3.908;2022-09-09T00:00:20;19.80;99.90
51091;DHT22;37136;43.614;3.908;2022-09-09T00:03:07;19.70;99.90
51091;DHT22;37136;43.614;3.908;2022-09-09T00:05:58;19.70;99.90
51091;DHT22;37136;43.614;3.908;2022-09-09T00:11:32;19.80;99.90
51091;DHT22;37136;43.614;3.908;2022-09-09T00:14:03;19.80;99.90
51091;DHT22;37136;43.614;3.908;2022-09-09T00:16:37;19.80;99.90
51091;DHT22;37136;43.614;3.908;2022-09-09T00:19:20;19.90;99.90
51091;DHT22;37136;43.614;3.908;2022-09-09T00:24:44;19.70;99.90
51091;DHT22;37136;43.614;3.908;2022-09-09T00:27:16;19.70;99.90
51091;DHT22;37136;43.614;3.908;2022-09-09T00:30:14;19.90;99.90
51091;DHT22;37136;43.614;3.908;2022-09-09T00:32:44;20.00;99.90
51091;DHT22;37136;43.614;3.908;2022-09-09T00:37:36;20.00;99.90
51091;DHT22;37136;43.614;3.908;2022-09-09T00:40:22;20.00;99.90
51091;DHT22;37136;43.614;3.908;2022-09-09T00:42:54;20.10;99.90
51091;DHT22;37136;43.614;3.908;2022-09-09T00:48:31;20.10;99.90
51091;DHT22;37136;43.614;3.908;2022-09-09T00:59:47;19.90;99.90
51091;DHT22;37136;43.614;3.908;2022-09-09T01:04:50;19.80;99.90
51091;DHT22;37136;43.614;3.908;2022-09-09T01:07:17;19.90;99.90
51091;DHT22;37136;43.614;3.908;2022-09-09T01:09:58;20.00;99.90
51091;DHT22;37136;43.614;3.908;2022-09-09T01:15:17;20.00;99.90
51091;DHT22;37136;43.614;3.908;2022-09-09T01:26:18;20.00;99.90
51091;DHT22;37136;43.614;3.908;2022-09-09T01:28:47;20.00;99.90
51091;DHT22;37136;43.614;3.908;2022-09-09T01:31:20;20.00;99.90
51091;DHT22;37136;43.614;3.908;2022-09-09T01:33:47;20.00;99.90
51091;DHT22;37136;43.614;3.908;2022-09-09T01:36:24;20.00;99.90
51091;DHT22;37136;43.614;3.908;2022-09-09T01:38:51;20.00;99.90
51091;DHT22;37136;43.614;3.908;2022-09-09T01:41:17;19.90;99.90
51091;DHT22;37136;43.614;3.908;2022-09-09T01:43:43;19.90;99.90
51091;DHT22;37136;43.614;3.908;2022-09-09T01:46:09;19.90;99.90
51091;DHT22;37136;43.614;3.908;2022-09-09T01:48:37;19.90;99.90
51091;DHT22;37136;43.614;3.908;2022-09-09T01:51:03;20.00;99.90
51091;DHT22;37136;43.614;3.908;2022-09-09T01:53:28;19.90;99.90
51091;DHT22;37136;43.614;3.908;2022-09-09T02:02:13;19.90;99.90
51091;DHT22;37136;43.614;3.908;2022-09-09T02:04:49;19.80;99.90
51091;DHT22;37136;43.614;3.908;2022-09-09T02:07:50;19.80;99.90
51091;DHT22;37136;43.614;3.908;2022-09-09T02:10:20;19.80;99.90
51091;DHT22;37136;43.614;3.908;2022-09-09T02:12:59;19.70;99.90
51091;DHT22;37136;43.614;3.908;2022-09-09T02:18:30;19.50;99.90
51091;DHT22;37136;43.614;3.908;2022-09-09T02:20:59;19.40;99.90
51091;DHT22;37136;43.614;3.908;2022-09-09T02:23:26;19.40;99.90
51091;DHT22;37136;43.614;3.908;2022-09-09T02:25:55;19.40;99.90
51091;DHT22;37136;43.614;3.908;2022-09-09T02:28:25;19.40;99.90
51091;DHT22;37136;43.614;3.908;2022-09-09T02:30:55;19.30;99.90
51091;DHT22;37136;43.614;3.908;2022-09-09T02:33:37;19.40;99.90
51091;DHT22;37136;43.614;3.908;2022-09-09T02:36:16;19.40;99.90
51091;DHT22;37136;43.614;3.908;2022-09-09T02:38:49;19.40;99.90
51091;DHT22;37136;43.614;3.908;2022-09-09T02:41:28;19.40;99.90
51091;DHT22;37136;43.614;3.908;2022-09-09T02:43:55;19.40;99.90
51091;DHT22;37136;43.614;3.908;2022-09-09T02:46:29;19.40;99.90
51091;DHT22;37136;43.614;3.908;2022-09-09T02:52:14;19.20;99.90
51091;DHT22;37136;43.614;3.908;2022-09-09T02:54:44;19.10;99.90
51091;DHT22;37136;43.614;3.908;2022-09-09T02:59:52;19.10;99.90
51091;DHT22;37136;43.614;3.908;2022-09-09T03:02:22;19.10;99.90
51091;DHT22;37136;43.614;3.908;2022-09-09T03:04:48;19.10;99.90
51091;DHT22;37136;43.614;3.908;2022-09-09T03:07:18;19.20;99.90
51091;DHT22;37136;43.614;3.908;2022-09-09T03:09:50;19.20;99.90
51091;DHT22;37136;43.614;3.908;2022-09-09T03:12:18;19.20;99.90
51091;DHT22;37136;43.614;3.908;2022-09-09T03:14:44;19.10;99.90
51091;DHT22;37136;43.614;3.908;2022-09-09T03:17:11;19.10;99.90
51091;DHT22;37136;43.614;3.908;2022-09-09T03:19:37;18.90;99.90
51091;DHT22;37136;43.614;3.908;2022-09-09T03:22:04;18.90;99.90
51091;DHT22;37136;43.614;3.908;2022-09-09T03:24:30;19.00;99.90
51091;DHT22;37136;43.614;3.908;2022-09-09T03:26:56;19.00;99.90
51091;DHT22;37136;43.614;3.908;2022-09-09T03:29:28;19.00;99.90
51091;DHT22;37136;43.614;3.908;2022-09-09T03:31:54;18.90;99.90
51091;DHT22;37136;43.614;3.908;2022-09-09T03:34:20;19.00;99.90
51091;DHT22;37136;43.614;3.908;2022-09-09T03:36:47;19.10;99.90
51091;DHT22;37136;43.614;3.908;2022-09-09T03:39:16;19.10;99.90
51091;DHT22;37136;43.614;3.908;2022-09-09T03:42:01;19.10;99.90
51091;DHT22;37136;43.614;3.908;2022-09-09T03:44:37;19.20;99.90
51091;DHT22;37136;43.614;3.908;2022-09-09T03:47:03;19.50;99.90
51091;DHT22;37136;43.614;3.908;2022-09-09T03:49:29;19.60;99.90
51091;DHT22;37136;43.614;3.908;2022-09-09T03:51:56;19.70;99.90
51091;DHT22;37136;43.614;3.908;2022-09-09T03:54:24;19.70;99.90
51091;DHT22;37136;43.614;3.908;2022-09-09T03:56:51;19.70;99.90
51091;DHT22;37136;43.614;3.908;2022-09-09T03:59:17;19.70;99.90
51091;DHT22;37136;43.614;3.908;2022-09-09T04:01:49;19.60;99.90
51091;DHT22;37136;43.614;3.908;2022-09-09T04:04:15;19.60;99.90
51091;DHT22;37136;43.614;3.908;2022-09-09T04:06:41;19.50;99.90
51091;DHT22;37136;43.614;3.908;2022-09-09T04:09:07;19.50;99.90
51091;DHT22;37136;43.614;3.908;2022-09-09T04:11:32;19.50;99.90
51091;DHT22;37136;43.614;3.908;2022-09-09T04:13:59;19.60;99.90
51091;DHT22;37136;43.614;3.908;2022-09-09T04:16:25;19.50;99.90
51091;DHT22;37136;43.614;3.908;2022-09-09T04:18:51;19.40;99.90
51091;DHT22;37136;43.614;3.908;2022-09-09T04:21:18;19.40;99.90
51091;DHT22;37136;43.614;3.908;2022-09-09T04:23:44;19.50;99.90
51091;DHT22;37136;43.614;3.908;2022-09-09T04:26:10;19.50;99.90
51091;DHT22;37136;43.614;3.908;2022-09-09T04:28:36;19.60;99.90
51091;DHT22;37136;43.614;3.908;2022-09-09T04:31:07;19.60;99.90
51091;DHT22;37136;43.614;3.908;2022-09-09T04:33:33;19.60;99.90
51091;DHT22;37136;43.614;3.908;2022-09-09T04:35:59;19.60;99.90
51091;DHT22;37136;43.614;3.908;2022-09-09T04:38:25;19.60;99.90
51091;DHT22;37136;43.614;3.908;2022-09-09T04:40:51;19.70;99.90
51091;DHT22;37136;43.614;3.908;2022-09-09T04:43:18;19.70;99.90
51091;DHT22;37136;43.614;3.908;2022-09-09T04:45:48;19.70;99.90
51091;DHT22;37136;43.614;3.908;2022-09-09T04:48:15;19.60;99.90
51091;DHT22;37136;43.614;3.908;2022-09-09T04:50:41;19.70;99.90
51091;DHT22;37136;43.614;3.908;2022-09-09T04:53:07;19.60;99.90
51091;DHT22;37136;43.614;3.908;2022-09-09T04:55:33;19.60;99.90
51091;DHT22;37136;43.614;3.908;2022-09-09T04:58:07;19.70;99.90
51091;DHT22;37136;43.614;3.908;2022-09-09T05:00:34;19.60;99.90
51091;DHT22;37136;43.614;3.908;2022-09-09T05:03:05;19.70;99.90
51091;DHT22;37136;43.614;3.908;2022-09-09T05:05:32;19.70;99.90
51091;DHT22;37136;43.614;3.908;2022-09-09T05:08:03;19.80;99.90
51091;DHT22;37136;43.614;3.908;2022-09-09T05:10:29;19.80;99.90
51091;DHT22;37136;43.614;3.908;2022-09-09T05:12:54;19.80;99.90
51091;DHT22;37136;43.614;3.908;2022-09-09T05:15:20;20.00;99.90
51091;DHT22;37136;43.614;3.908;2022-09-09T05:17:46;20.00;99.90
51091;DHT22;37136;43.614;3.908;2022-09-09T05:20:12;20.00;99.90
51091;DHT22;37136;43.614;3.908;2022-09-09T05:22:38;20.00;99.90
51091;DHT22;37136;43.614;3.908;2022-09-09T05:25:04;20.00;99.90
51091;DHT22;37136;43.614;3.908;2022-09-09T05:27:30;20.00;99.90
51091;DHT22;37136;43.614;3.908;2022-09-09T05:29:58;20.00;99.90
51091;DHT22;37136;43.614;3.908;2022-09-09T05:32:24;20.00;99.90
51091;DHT22;37136;43.614;3.908;2022-09-09T05:34:49;20.00;99.90
51091;DHT22;37136;43.614;3.908;2022-09-09T05:37:16;20.00;99.90
51091;DHT22;37136;43.614;3.908;2022-09-09T05:39:42;20.10;99.90
51091;DHT22;37136;43.614;3.908;2022-09-09T05:42:07;20.10;99.90
51091;DHT22;37136;43.614;3.908;2022-09-09T05:44:33;20.10;99.90
51091;DHT22;37136;43.614;3.908;2022-09-09T05:46:59;20.10;99.90
51091;DHT22;37136;43.614;3.908;2022-09-09T05:49:25;20.20;99.90
51091;DHT22;37136;43.614;3.908;2022-09-09T05:51:51;20.20;99.90
51091;DHT22;37136;43.614;3.908;2022-09-09T05:54:16;20.10;99.90
51091;DHT22;37136;43.614;3.908;2022-09-09T05:56:43;20.00;99.90
51091;DHT22;37136;43.614;3.908;2022-09-09T05:59:08;20.00;99.90
51091;DHT22;37136;43.614;3.908;2022-09-09T06:01:36;20.00;99.90
51091;DHT22;37136;43.614;3.908;2022-09-09T06:04:05;20.00;99.90
51091;DHT22;37136;43.614;3.908;2022-09-09T06:06:33;20.10;99.90
51091;DHT22;37136;43.614;3.908;2022-09-09T06:09:03;20.10;99.90
51091;DHT22;37136;43.614;3.908;2022-09-09T06:11:32;20.20;99.90
51091;DHT22;37136;43.614;3.908;2022-09-09T06:13:59;20.30;99.90
51091;DHT22;37136;43.614;3.908;2022-09-09T06:16:26;20.20;99.90
51091;DHT22;37136;43.614;3.908;2022-09-09T06:18:54;20.20;99.90
51091;DHT22;37136;43.614;3.908;2022-09-09T06:21:28;20.20;99.90
51091;DHT22;37136;43.614;3.908;2022-09-09T06:23:56;20.20;99.90
51091;DHT22;37136;43.614;3.908;2022-09-09T06:26:24;20.30;99.90
51091;DHT22;37136;43.614;3.908;2022-09-09T06:28:51;20.30;99.90
51091;DHT22;37136;43.614;3.908;2022-09-09T06:31:20;20.30;99.90
51091;DHT22;37136;43.614;3.908;2022-09-09T06:33:48;20.40;99.90
51091;DHT22;37136;43.614;3.908;2022-09-09T06:36:20;20.40;99.90
51091;DHT22;37136;43.614;3.908;2022-09-09T06:38:47;20.50;99.90
51091;DHT22;37136;43.614;3.908;2022-09-09T06:41:15;20.50;99.90
51091;DHT22;37136;43.614;3.908;2022-09-09T06:43:41;20.60;99.90
51091;DHT22;37136;43.614;3.908;2022-09-09T06:46:11;20.60;99.90
51091;DHT22;37136;43.614;3.908;2022-09-09T06:48:39;20.60;99.90
51091;DHT22;37136;43.614;3.908;2022-09-09T06:51:20;20.60;99.90
51091;DHT22;37136;43.614;3.908;2022-09-09T06:53:54;20.60;99.90
51091;DHT22;37136;43.614;3.908;2022-09-09T06:58:52;20.70;99.90
51091;DHT22;37136;43.614;3.908;2022-09-09T07:01:23;20.70;99.90
51091;DHT22;37136;43.614;3.908;2022-09-09T07:03:51;20.70;99.90
51091;DHT22;37136;43.614;3.908;2022-09-09T07:06:25;20.80;99.90
51091;DHT22;37136;43.614;3.908;2022-09-09T07:09:04;20.70;99.90
51091;DHT22;37136;43.614;3.908;2022-09-09T07:11:41;20.80;99.90
51091;DHT22;37136;43.614;3.908;2022-09-09T07:14:08;20.90;99.90
51091;DHT22;37136;43.614;3.908;2022-09-09T07:16:34;21.00;99.90
51091;DHT22;37136;43.614;3.908;2022-09-09T07:19:04;21.00;99.90
51091;DHT22;37136;43.614;3.908;2022-09-09T07:21:33;21.00;99.90
51091;DHT22;37136;43.614;3.908;2022-09-09T07:24:00;21.00;99.90
51091;DHT22;37136;43.614;3.908;2022-09-09T07:26:29;21.00;99.90
51091;DHT22;37136;43.614;3.908;2022-09-09T07:28:55;21.00;99.90
51091;DHT22;37136;43.614;3.908;2022-09-09T07:31:36;21.10;99.90
51091;DHT22;37136;43.614;3.908;2022-09-09T07:34:06;21.20;99.90
51091;DHT22;37136;43.614;3.908;2022-09-09T07:36:34;21.40;99.90
51091;DHT22;37136;43.614;3.908;2022-09-09T07:39:06;21.60;99.90
51091;DHT22;37136;43.614;3.908;2022-09-09T07:41:41;21.60;99.90
51091;DHT22;37136;43.614;3.908;2022-09-09T07:44:19;21.60;99.90
51091;DHT22;37136;43.614;3.908;2022-09-09T07:46:48;21.50;99.90
51091;DHT22;37136;43.614;3.908;2022-09-09T07:49:14;21.40;99.90
51091;DHT22;37136;43.614;3.908;2022-09-09T07:51:43;21.30;99.90
51091;DHT22;37136;43.614;3.908;2022-09-09T07:54:10;21.20;99.90
51091;DHT22;37136;43.614;3.908;2022-09-09T07:56:38;21.10;99.90
51091;DHT22;37136;43.614;3.908;2022-09-09T07:59:04;21.10;99.90
51091;DHT22;37136;43.614;3.908;2022-09-09T08:01:42;21.20;99.90
51091;DHT22;37136;43.614;3.908;2022-09-09T08:04:19;21.20;99.90
51091;DHT22;37136;43.614;3.908;2022-09-09T08:07:11;21.20;99.90
51091;DHT22;37136;43.614;3.908;2022-09-09T08:09:39;21.10;99.90
51091;DHT22;37136;43.614;3.908;2022-09-09T08:12:04;21.10;99.90
51091;DHT22;37136;43.614;3.908;2022-09-09T08:14:32;21.10;99.90
51091;DHT22;37136;43.614;3.908;2022-09-09T08:16:57;21.10;99.90
51091;DHT22;37136;43.614;3.908;2022-09-09T08:19:23;21.00;99.90
51091;DHT22;37136;43.614;3.908;2022-09-09T08:21:49;20.90;99.90
51091;DHT22;37136;43.614;3.908;2022-09-09T08:24:15;20.90;99.90
51091;DHT22;37136;43.614;3.908;2022-09-09T08:26:44;20.90;99.90
51091;DHT22;37136;43.614;3.908;2022-09-09T08:29:11;20.80;99.90
51091;DHT22;37136;43.614;3.908;2022-09-09T08:31:49;20.50;99.90
51091;DHT22;37136;43.614;3.908;2022-09-09T08:34:17;20.40;99.90
51091;DHT22;37136;43.614;3.908;2022-09-09T08:36:47;20.40;99.90
51091;DHT22;37136;43.614;3.908;2022-09-09T08:39:15;20.30;99.90
51091;DHT22;37136;43.614;3.908;2022-09-09T08:41:57;20.40;99.90
51091;DHT22;37136;43.614;3.908;2022-09-09T08:50:26;20.80;99.90
51091;DHT22;37136;43.614;3.908;2022-09-09T08:53:23;20.90;99.90
51091;DHT22;37136;43.614;3.908;2022-09-09T08:58:23;21.00;99.90
51091;DHT22;37136;43.614;3.908;2022-09-09T09:07:03;21.40;99.90
51091;DHT22;37136;43.614;3.908;2022-09-09T09:12:16;21.40;99.90
51091;DHT22;37136;43.614;3.908;2022-09-09T09:14:45;21.50;99.90
51091;DHT22;37136;43.614;3.908;2022-09-09T09:17:18;21.60;99.90
51091;DHT22;37136;43.614;3.908;2022-09-09T09:19:45;21.60;99.90
51091;DHT22;37136;43.614;3.908;2022-09-09T09:27:57;21.80;99.90
51091;DHT22;37136;43.614;3.908;2022-09-09T09:30:29;22.00;99.90
51091;DHT22;37136;43.614;3.908;2022-09-09T09:33:01;22.10;99.90
51091;DHT22;37136;43.614;3.908;2022-09-09T09:35:28;22.20;99.90
51091;DHT22;37136;43.614;3.908;2022-09-09T09:37:54;22.20;99.90
51091;DHT22;37136;43.614;3.908;2022-09-09T09:40:22;22.30;99.90
51091;DHT22;37136;43.614;3.908;2022-09-09T09:42:53;22.50;99.90
51091;DHT22;37136;43.614;3.908;2022-09-09T09:45:32;22.40;99.90
51091;DHT22;37136;43.614;3.908;2022-09-09T09:48:05;22.50;99.90
51091;DHT22;37136;43.614;3.908;2022-09-09T09:50:32;22.50;99.90
51091;DHT22;37136;43.614;3.908;2022-09-09T09:53:03;22.50;99.90
51091;DHT22;37136;43.614;3.908;2022-09-09T09:55:33;22.60;99.90
51091;DHT22;37136;43.614;3.908;2022-09-09T09:58:13;22.40;99.90
51091;DHT22;37136;43.614;3.908;2022-09-09T10:00:51;22.70;99.90
51091;DHT22;37136;43.614;3.908;2022-09-09T10:03:23;23.00;99.90
51091;DHT22;37136;43.614;3.908;2022-09-09T10:05:50;23.30;99.90
51091;DHT22;37136;43.614;3.908;2022-09-09T10:08:16;23.30;99.90
51091;DHT22;37136;43.614;3.908;2022-09-09T10:19:36;22.80;99.90
51091;DHT22;37136;43.614;3.908;2022-09-09T10:25:01;22.70;99.90
51091;DHT22;37136;43.614;3.908;2022-09-09T10:30:33;23.20;99.90
51091;DHT22;37136;43.614;3.908;2022-09-09T10:33:10;23.30;99.90
51091;DHT22;37136;43.614;3.908;2022-09-09T10:38:40;24.20;99.90
51091;DHT22;37136;43.614;3.908;2022-09-09T10:41:16;24.60;99.90
51091;DHT22;37136;43.614;3.908;2022-09-09T10:44:21;24.60;99.90
51091;DHT22;37136;43.614;3.908;2022-09-09T10:52:50;24.80;99.90
51091;DHT22;37136;43.614;3.908;2022-09-09T10:55:24;25.00;99.90
51091;DHT22;37136;43.614;3.908;2022-09-09T10:57:54;24.90;99.90
51091;DHT22;37136;43.614;3.908;2022-09-09T11:00:31;25.10;99.90
51091;DHT22;37136;43.614;3.908;2022-09-09T11:03:02;25.30;99.90
51091;DHT22;37136;43.614;3.908;2022-09-09T11:05:52;25.10;99.90
51091;DHT22;37136;43.614;3.908;2022-09-09T11:08:27;25.00;99.90
51091;DHT22;37136;43.614;3.908;2022-09-09T11:22:02;24.50;99.90
51091;DHT22;37136;43.614;3.908;2022-09-09T11:24:40;24.70;99.90
51091;DHT22;37136;43.614;3.908;2022-09-09T11:27:21;24.90;99.90
51091;DHT22;37136;43.614;3.908;2022-09-09T11:42:22;25.40;99.90
51091;DHT22;37136;43.614;3.908;2022-09-09T11:44:54;25.50;99.90
51091;DHT22;37136;43.614;3.908;2022-09-09T11:47:30;25.50;99.90
51091;DHT22;37136;43.614;3.908;2022-09-09T11:52:50;25.70;99.90
51091;DHT22;37136;43.614;3.908;2022-09-09T11:58:40;25.40;99.90
51091;DHT22;37136;43.614;3.908;2022-09-09T12:01:41;25.30;99.90
51091;DHT22;37136;43.614;3.908;2022-09-09T12:07:25;25.90;99.90
51091;DHT22;37136;43.614;3.908;2022-09-09T12:10:27;26.30;99.90
51091;DHT22;37136;43.614;3.908;2022-09-09T12:13:20;26.20;99.90
51091;DHT22;37136;43.614;3.908;2022-09-09T12:16:40;25.70;99.90
51091;DHT22;37136;43.614;3.908;2022-09-09T12:19:22;25.60;99.90
51091;DHT22;37136;43.614;3.908;2022-09-09T12:22:08;25.50;99.90
51091;DHT22;37136;43.614;3.908;2022-09-09T12:27:52;25.40;99.90
51091;DHT22;37136;43.614;3.908;2022-09-09T12:30:15;25.80;99.90
51091;DHT22;37136;43.614;3.908;2022-09-09T12:32:41;25.70;99.90
51091;DHT22;37136;43.614;3.908;2022-09-09T12:35:26;25.70;99.90
51091;DHT22;37136;43.614;3.908;2022-09-09T12:38:00;25.60;99.90
51091;DHT22;37136;43.614;3.908;2022-09-09T12:40:31;25.70;99.90
51091;DHT22;37136;43.614;3.908;2022-09-09T12:43:01;25.60;99.90
51091;DHT22;37136;43.614;3.908;2022-09-09T12:45:30;25.30;99.90
51091;DHT22;37136;43.614;3.908;2022-09-09T12:48:00;25.30;99.90
51091;DHT22;37136;43.614;3.908;2022-09-09T12:50:28;25.00;99.90
51091;DHT22;37136;43.614;3.908;2022-09-09T12:53:38;24.80;99.90
51091;DHT22;37136;43.614;3.908;2022-09-09T12:55:57;24.80;99.90
51091;DHT22;37136;43.614;3.908;2022-09-09T12:58:24;24.80;99.90
51091;DHT22;37136;43.614;3.908;2022-09-09T13:00:53;25.00;99.90
51091;DHT22;37136;43.614;3.908;2022-09-09T13:03:22;25.20;99.90
51091;DHT22;37136;43.614;3.908;2022-09-09T13:05:48;25.00;99.90
51091;DHT22;37136;43.614;3.908;2022-09-09T13:08:15;24.80;99.90
51091;DHT22;37136;43.614;3.908;2022-09-09T13:10:57;24.80;99.90
51091;DHT22;37136;43.614;3.908;2022-09-09T13:16:00;24.80;99.90
51091;DHT22;37136;43.614;3.908;2022-09-09T13:18:33;24.90;99.90
51091;DHT22;37136;43.614;3.908;2022-09-09T13:20:59;24.80;99.90
51091;DHT22;37136;43.614;3.908;2022-09-09T13:23:31;24.90;99.90
51091;DHT22;37136;43.614;3.908;2022-09-09T13:26:53;25.00;99.90
51091;DHT22;37136;43.614;3.908;2022-09-09T13:28:55;25.10;99.90
51091;DHT22;37136;43.614;3.908;2022-09-09T13:31:36;25.10;99.90
51091;DHT22;37136;43.614;3.908;2022-09-09T13:34:13;25.20;99.90
51091;DHT22;37136;43.614;3.908;2022-09-09T13:36:40;25.30;99.90
51091;DHT22;37136;43.614;3.908;2022-09-09T13:39:16;25.20;99.90
51091;DHT22;37136;43.614;3.908;2022-09-09T13:41:44;25.00;99.90
51091;DHT22;37136;43.614;3.908;2022-09-09T13:44:26;25.10;99.90
51091;DHT22;37136;43.614;3.908;2022-09-09T13:49:40;25.40;99.90
51091;DHT22;37136;43.614;3.908;2022-09-09T13:52:09;25.80;99.90
51091;DHT22;37136;43.614;3.908;2022-09-09T13:54:35;26.10;99.90
51091;DHT22;37136;43.614;3.908;2022-09-09T13:57:01;26.30;99.90
51091;DHT22;37136;43.614;3.908;2022-09-09T13:59:27;26.30;99.90
51091;DHT22;37136;43.614;3.908;2022-09-09T14:01:53;25.70;99.90
51091;DHT22;37136;43.614;3.908;2022-09-09T14:04:19;26.10;99.90
51091;DHT22;37136;43.614;3.908;2022-09-09T14:06:47;26.30;99.90
51091;DHT22;37136;43.614;3.908;2022-09-09T14:09:15;26.10;99.90
51091;DHT22;37136;43.614;3.908;2022-09-09T14:11:41;26.10;99.90
51091;DHT22;37136;43.614;3.908;2022-09-09T14:14:08;26.10;99.90
51091;DHT22;37136;43.614;3.908;2022-09-09T14:16:34;26.40;99.90
51091;DHT22;37136;43.614;3.908;2022-09-09T14:19:00;26.10;99.90
51091;DHT22;37136;43.614;3.908;2022-09-09T14:21:27;25.80;99.90
51091;DHT22;37136;43.614;3.908;2022-09-09T14:23:53;25.50;99.90
51091;DHT22;37136;43.614;3.908;2022-09-09T14:26:23;25.50;99.90
51091;DHT22;37136;43.614;3.908;2022-09-09T14:28:49;25.50;99.90
51091;DHT22;37136;43.614;3.908;2022-09-09T14:31:16;25.80;99.90
51091;DHT22;37136;43.614;3.908;2022-09-09T14:33:45;26.10;99.90
51091;DHT22;37136;43.614;3.908;2022-09-09T14:36:11;26.40;99.90
51091;DHT22;37136;43.614;3.908;2022-09-09T14:38:37;26.50;99.90
51091;DHT22;37136;43.614;3.908;2022-09-09T14:41:10;26.20;99.90
51091;DHT22;37136;43.614;3.908;2022-09-09T14:43:39;26.40;99.90
51091;DHT22;37136;43.614;3.908;2022-09-09T14:46:13;26.40;99.90
51091;DHT22;37136;43.614;3.908;2022-09-09T14:48:39;26.40;99.90
51091;DHT22;37136;43.614;3.908;2022-09-09T14:51:11;25.90;99.90
51091;DHT22;37136;43.614;3.908;2022-09-09T14:53:39;25.60;99.90
51091;DHT22;37136;43.614;3.908;2022-09-09T14:56:06;25.30;99.90
51091;DHT22;37136;43.614;3.908;2022-09-09T14:58:34;25.10;99.90
51091;DHT22;37136;43.614;3.908;2022-09-09T15:01:08;25.00;99.90
51091;DHT22;37136;43.614;3.908;2022-09-09T15:03:39;24.90;99.90
51091;DHT22;37136;43.614;3.908;2022-09-09T15:06:12;25.20;99.90
51091;DHT22;37136;43.614;3.908;2022-09-09T15:08:41;25.50;99.90
51091;DHT22;37136;43.614;3.908;2022-09-09T15:11:07;25.80;99.90
51091;DHT22;37136;43.614;3.908;2022-09-09T15:13:34;26.00;99.90
51091;DHT22;37136;43.614;3.908;2022-09-09T15:16:07;26.00;99.90
51091;DHT22;37136;43.614;3.908;2022-09-09T15:18:34;26.10;99.90
51091;DHT22;37136;43.614;3.908;2022-09-09T15:21:02;26.40;99.90
51091;DHT22;37136;43.614;3.908;2022-09-09T15:23:33;26.30;99.90
51091;DHT22;37136;43.614;3.908;2022-09-09T15:25:59;26.30;99.90
51091;DHT22;37136;43.614;3.908;2022-09-09T15:28:28;26.20;99.90
51091;DHT22;37136;43.614;3.908;2022-09-09T15:30:54;26.80;99.90
51091;DHT22;37136;43.614;3.908;2022-09-09T15:33:21;30.30;99.90
51091;DHT22;37136;43.614;3.908;2022-09-09T15:35:48;33.30;99.90
51091;DHT22;37136;43.614;3.908;2022-09-09T15:38:16;34.70;99.90
51091;DHT22;37136;43.614;3.908;2022-09-09T15:40:44;34.60;99.90
51091;DHT22;37136;43.614;3.908;2022-09-09T15:43:12;35.40;99.90
51091;DHT22;37136;43.614;3.908;2022-09-09T15:45:39;35.30;99.90
51091;DHT22;37136;43.614;3.908;2022-09-09T15:48:05;36.50;99.90
51091;DHT22;37136;43.614;3.908;2022-09-09T15:50:31;34.80;99.90
51091;DHT22;37136;43.614;3.908;2022-09-09T15:52:58;33.60;99.90
51091;DHT22;37136;43.614;3.908;2022-09-09T15:55:24;35.10;99.90
51091;DHT22;37136;43.614;3.908;2022-09-09T15:57:51;34.60;99.90
51091;DHT22;37136;43.614;3.908;2022-09-09T16:00:19;34.70;99.90
51091;DHT22;37136;43.614;3.908;2022-09-09T16:02:48;36.40;99.90
51091;DHT22;37136;43.614;3.908;2022-09-09T16:05:14;36.10;99.90
51091;DHT22;37136;43.614;3.908;2022-09-09T16:07:40;35.60;99.90
51091;DHT22;37136;43.614;3.908;2022-09-09T16:10:08;34.10;99.90
51091;DHT22;37136;43.614;3.908;2022-09-09T16:12:34;32.10;99.90
51091;DHT22;37136;43.614;3.908;2022-09-09T16:15:00;34.30;99.90
51091;DHT22;37136;43.614;3.908;2022-09-09T16:17:26;35.00;99.90
51091;DHT22;37136;43.614;3.908;2022-09-09T16:19:53;34.70;99.90
51091;DHT22;37136;43.614;3.908;2022-09-09T16:22:20;33.10;99.90
51091;DHT22;37136;43.614;3.908;2022-09-09T16:24:46;31.90;99.90
51091;DHT22;37136;43.614;3.908;2022-09-09T16:27:11;33.50;99.90
51091;DHT22;37136;43.614;3.908;2022-09-09T16:29:37;33.70;99.90
51091;DHT22;37136;43.614;3.908;2022-09-09T16:32:03;33.40;99.90
51091;DHT22;37136;43.614;3.908;2022-09-09T16:34:29;32.60;99.90
51091;DHT22;37136;43.614;3.908;2022-09-09T16:36:54;33.30;99.90
51091;DHT22;37136;43.614;3.908;2022-09-09T16:39:21;31.30;99.90
51091;DHT22;37136;43.614;3.908;2022-09-09T16:41:48;28.00;99.90
51091;DHT22;37136;43.614;3.908;2022-09-09T16:44:16;26.50;99.90
51091;DHT22;37136;43.614;3.908;2022-09-09T16:46:44;25.90;99.90
51091;DHT22;37136;43.614;3.908;2022-09-09T16:49:13;25.50;99.90
51091;DHT22;37136;43.614;3.908;2022-09-09T16:51:43;25.30;99.90
51091;DHT22;37136;43.614;3.908;2022-09-09T16:54:10;25.20;99.90
51091;DHT22;37136;43.614;3.908;2022-09-09T16:56:39;25.10;99.90
51091;DHT22;37136;43.614;3.908;2022-09-09T16:59:27;25.00;99.90
51091;DHT22;37136;43.614;3.908;2022-09-09T17:01:53;24.90;99.90
51091;DHT22;37136;43.614;3.908;2022-09-09T17:04:22;24.90;99.90
51091;DHT22;37136;43.614;3.908;2022-09-09T17:06:51;24.80;99.90
51091;DHT22;37136;43.614;3.908;2022-09-09T17:09:18;24.70;99.90
51091;DHT22;37136;43.614;3.908;2022-09-09T17:11:44;24.60;99.90
51091;DHT22;37136;43.614;3.908;2022-09-09T17:14:15;24.60;99.90
51091;DHT22;37136;43.614;3.908;2022-09-09T17:16:41;24.60;99.90
51091;DHT22;37136;43.614;3.908;2022-09-09T17:19:07;24.50;99.90
51091;DHT22;37136;43.614;3.908;2022-09-09T17:21:34;24.40;99.90
51091;DHT22;37136;43.614;3.908;2022-09-09T17:24:00;24.30;99.90
51091;DHT22;37136;43.614;3.908;2022-09-09T17:26:29;24.10;99.90
51091;DHT22;37136;43.614;3.908;2022-09-09T17:28:55;24.00;99.90
51091;DHT22;37136;43.614;3.908;2022-09-09T17:31:24;24.00;99.90
51091;DHT22;37136;43.614;3.908;2022-09-09T17:33:51;23.90;99.90
51091;DHT22;37136;43.614;3.908;2022-09-09T17:36:26;23.80;99.90
51091;DHT22;37136;43.614;3.908;2022-09-09T17:38:53;23.70;99.90
51091;DHT22;37136;43.614;3.908;2022-09-09T17:41:24;23.60;99.90
51091;DHT22;37136;43.614;3.908;2022-09-09T17:43:51;23.50;99.90
51091;DHT22;37136;43.614;3.908;2022-09-09T17:46:22;23.40;99.90
51091;DHT22;37136;43.614;3.908;2022-09-09T17:48:55;23.30;99.90
51091;DHT22;37136;43.614;3.908;2022-09-09T17:51:24;23.30;99.90
51091;DHT22;37136;43.614;3.908;2022-09-09T17:53:54;23.10;99.90
51091;DHT22;37136;43.614;3.908;2022-09-09T17:56:22;23.10;99.90
51091;DHT22;37136;43.614;3.908;2022-09-09T17:58:49;23.00;99.90
51091;DHT22;37136;43.614;3.908;2022-09-09T18:01:24;22.90;99.90
51091;DHT22;37136;43.614;3.908;2022-09-09T18:03:52;22.80;99.90
51091;DHT22;37136;43.614;3.908;2022-09-09T18:06:21;22.80;99.90
51091;DHT22;37136;43.614;3.908;2022-09-09T18:08:56;22.70;99.90